Time;durP1;ratioP1;P1;durP2;ratioP2;P2;SDS_P1;SDS_P2;PMS_P1;PMS_P2;Temp;Humidity;BMP_temperature;BMP_pressure;BME280_temperature;BME280_humidity;BME280_pressure;Samples;Min_cycle;Max_cycle;Signal;HPM_P1;HPM_P2
2021/10/04 00:00:00;;;;;;;2.40;1.57;;;;;;;;;;5057073;28;20541;-72
2021/10/04 00:02:27;;;;;;;3.93;1.70;;;;;;;;;;5054843;28;20212;-71
2021/10/04 00:04:55;;;;;;;3.30;1.27;;;;;;;;;;5055907;28;20237;-71
2021/10/04 00:07:22;;;;;;;5.33;1.53;;;;;;;;;;5053899;28;20212;-72
2021/10/04 00:09:48;;;;;;;5.77;1.70;;;;;;;;;;5054562;28;20754;-72
2021/10/04 00:12:15;;;;;;;6.30;1.67;;;;;;;;;;5054342;28;20335;-71
2021/10/04 00:14:41;;;;;;;3.20;1.60;;;;;;;;;;5055958;28;20298;-71
2021/10/04 00:17:08;;;;;;;3.30;1.30;;;;;;;;;;5055281;28;20259;-71
2021/10/04 00:19:35;;;;;;;3.20;1.20;;;;;;;;;;5054439;28;20209;-70
2021/10/04 00:22:04;;;;;;;2.87;1.30;;;;;;;;;;5054668;28;20270;-70
2021/10/04 00:24:31;;;;;;;5.13;1.33;;;;;;;;;;5053292;28;20217;-70
2021/10/04 00:26:57;;;;;;;3.40;1.20;;;;;;;;;;5055478;28;20221;-70
2021/10/04 00:29:23;;;;;;;4.70;1.50;;;;;;;;;;5053355;28;20566;-70
2021/10/04 00:31:50;;;;;;;2.43;1.63;;;;;;;;;;5051934;28;20216;-70
2021/10/04 00:34:17;;;;;;;4.97;1.90;;;;;;;;;;5054768;28;20255;-71
2021/10/04 00:36:43;;;;;;;6.43;1.47;;;;;;;;;;5051550;28;20234;-71
2021/10/04 00:39:11;;;;;;;3.50;1.40;;;;;;;;;;5056139;28;20212;-70
2021/10/04 00:41:38;;;;;;;2.97;1.00;;;;;;;;;;5054895;28;20277;-70
2021/10/04 00:44:05;;;;;;;4.30;1.80;;;;;;;;;;5055285;28;20705;-70
2021/10/04 00:46:31;;;;;;;7.10;1.57;;;;;;;;;;5053747;28;20225;-70
2021/10/04 00:48:58;;;;;;;5.57;1.43;;;;;;;;;;5053499;28;20238;-71
2021/10/04 00:51:24;;;;;;;3.67;1.67;;;;;;;;;;5055485;28;20242;-71
2021/10/04 00:53:52;;;;;;;4.97;1.30;;;;;;;;;;5055269;28;20691;-72
2021/10/04 00:56:22;;;;;;;3.57;1.60;;;;;;;;;;5055070;28;20219;-70
2021/10/04 00:58:48;;;;;;;4.13;1.47;;;;;;;;;;5054644;28;20217;-71
2021/10/04 01:01:15;;;;;;;3.57;1.47;;;;;;;;;;5053046;28;20218;-71
2021/10/04 01:03:42;;;;;;;6.77;1.97;;;;;;;;;;5054606;28;20621;-71
2021/10/04 01:06:08;;;;;;;2.40;1.50;;;;;;;;;;5054563;28;20238;-71
2021/10/04 01:08:35;;;;;;;3.67;1.40;;;;;;;;;;5055136;28;21000;-71
2021/10/04 01:11:01;;;;;;;2.07;1.20;;;;;;;;;;5054072;28;20245;-70
2021/10/04 01:13:29;;;;;;;3.90;1.30;;;;;;;;;;5052832;28;20287;-71
2021/10/04 01:15:56;;;;;;;5.47;1.87;;;;;;;;;;5054787;28;20212;-71
2021/10/04 01:18:23;;;;;;;4.77;1.47;;;;;;;;;;5055284;28;20300;-71
2021/10/04 01:20:51;;;;;;;4.50;1.90;;;;;;;;;;5053880;28;20255;-70
2021/10/04 01:23:17;;;;;;;3.83;1.67;;;;;;;;;;5053622;28;20216;-70
2021/10/04 01:25:44;;;;;;;4.80;1.83;;;;;;;;;;5053675;28;20221;-71
2021/10/04 01:28:10;;;;;;;9.33;1.80;;;;;;;;;;5055980;28;20934;-71
2021/10/04 01:30:37;;;;;;;5.33;1.77;;;;;;;;;;5053257;28;20240;-71
2021/10/04 01:33:03;;;;;;;7.07;1.73;;;;;;;;;;5053383;28;20734;-70
2021/10/04 01:35:30;;;;;;;4.73;1.60;;;;;;;;;;5054306;28;20250;-70
2021/10/04 01:37:57;;;;;;;5.77;2.00;;;;;;;;;;5056163;28;20596;-70
2021/10/04 01:40:24;;;;;;;3.80;1.70;;;;;;;;;;5054365;28;20271;-74
2021/10/04 01:42:51;;;;;;;4.13;1.87;;;;;;;;;;5054717;28;20299;-72
2021/10/04 01:45:21;;;;;;;10.00;1.80;;;;;;;;;;5055283;28;20217;-70
2021/10/04 01:47:48;;;;;;;4.67;2.03;;;;;;;;;;5056032;28;20215;-71
2021/10/04 01:50:16;;;;;;;5.67;1.73;;;;;;;;;;5058655;28;20238;-71
2021/10/04 01:52:42;;;;;;;3.17;1.40;;;;;;;;;;5057036;28;20214;-71
2021/10/04 01:55:11;;;;;;;5.83;1.70;;;;;;;;;;5057415;28;20560;-71
2021/10/04 01:57:38;;;;;;;3.60;1.93;;;;;;;;;;5057171;28;20213;-71
2021/10/04 02:00:07;;;;;;;3.70;1.60;;;;;;;;;;5055848;28;20215;-71
2021/10/04 02:02:34;;;;;;;5.40;1.93;;;;;;;;;;5056708;28;20272;-71
2021/10/04 02:05:00;;;;;;;2.93;1.77;;;;;;;;;;5056519;28;20655;-70
2021/10/04 02:07:26;;;;;;;6.97;2.73;;;;;;;;;;5056283;28;20224;-70
2021/10/04 02:09:53;;;;;;;4.67;1.80;;;;;;;;;;5056732;28;20256;-71
2021/10/04 02:12:21;;;;;;;5.67;1.63;;;;;;;;;;5056443;28;20307;-71
2021/10/04 02:14:47;;;;;;;5.97;2.47;;;;;;;;;;5059131;28;20243;-71
2021/10/04 02:17:14;;;;;;;3.87;1.70;;;;;;;;;;5057766;28;20266;-71
2021/10/04 02:19:40;;;;;;;7.37;2.00;;;;;;;;;;5057088;28;20287;-71
2021/10/04 02:22:06;;;;;;;4.13;2.03;;;;;;;;;;5057102;28;20213;-71
2021/10/04 02:24:33;;;;;;;3.63;1.83;;;;;;;;;;5057534;28;20210;-71
2021/10/04 02:26:59;;;;;;;4.53;2.00;;;;;;;;;;5055211;28;20237;-71
2021/10/04 02:29:27;;;;;;;9.43;2.00;;;;;;;;;;5057445;28;20264;-71
2021/10/04 02:31:54;;;;;;;4.07;2.07;;;;;;;;;;5056580;28;20771;-71
2021/10/04 02:34:20;;;;;;;5.87;2.70;;;;;;;;;;5056851;28;20228;-71
2021/10/04 02:36:46;;;;;;;5.60;1.67;;;;;;;;;;5055651;28;20218;-71
2021/10/04 02:39:13;;;;;;;3.97;1.73;;;;;;;;;;5056520;28;20270;-71
2021/10/04 02:41:39;;;;;;;5.63;1.90;;;;;;;;;;5057530;28;20567;-71
2021/10/04 02:44:05;;;;;;;5.57;1.80;;;;;;;;;;5056113;28;20654;-71
2021/10/04 02:46:33;;;;;;;5.10;2.40;;;;;;;;;;5057206;28;20248;-71
2021/10/04 02:49:00;;;;;;;6.20;2.13;;;;;;;;;;5057484;28;20288;-71
2021/10/04 02:51:26;;;;;;;3.93;1.90;;;;;;;;;;5054842;28;20241;-70
2021/10/04 02:53:52;;;;;;;3.17;2.00;;;;;;;;;;5057331;28;20330;-71
2021/10/04 02:56:19;;;;;;;6.10;1.93;;;;;;;;;;5055523;28;20219;-71
2021/10/04 02:58:46;;;;;;;7.27;2.40;;;;;;;;;;5054319;28;20232;-71
2021/10/04 03:01:12;;;;;;;5.20;1.73;;;;;;;;;;5056899;28;20626;-71
2021/10/04 03:03:40;;;;;;;2.90;1.67;;;;;;;;;;5056205;28;20264;-71
2021/10/04 03:06:06;;;;;;;6.80;2.37;;;;;;;;;;5053547;28;20242;-71
2021/10/04 03:08:32;;;;;;;3.40;1.80;;;;;;;;;;5054082;28;20261;-71
2021/10/04 03:10:59;;;;;;;4.90;2.20;;;;;;;;;;5054588;28;20244;-71
2021/10/04 03:13:25;;;;;;;10.17;2.50;;;;;;;;;;5055184;28;20213;-71
2021/10/04 03:15:51;;;;;;;2.80;2.07;;;;;;;;;;5056766;28;20266;-71
2021/10/04 03:18:18;;;;;;;4.53;2.43;;;;;;;;;;5054661;28;20214;-71
2021/10/04 03:20:46;;;;;;;4.73;2.27;;;;;;;;;;5055431;28;20298;-71
2021/10/04 03:23:12;;;;;;;6.50;2.33;;;;;;;;;;5056498;28;20279;-71
2021/10/04 03:25:38;;;;;;;4.00;2.40;;;;;;;;;;5056318;28;20251;-71
2021/10/04 03:28:06;;;;;;;6.47;2.77;;;;;;;;;;5056002;28;20270;-71
2021/10/04 03:30:33;;;;;;;4.50;2.50;;;;;;;;;;5056918;28;20243;-71
2021/10/04 03:33:00;;;;;;;5.23;2.10;;;;;;;;;;5054290;28;20216;-71
2021/10/04 03:35:26;;;;;;;5.97;2.20;;;;;;;;;;5055155;28;20241;-71
2021/10/04 03:37:54;;;;;;;3.63;2.43;;;;;;;;;;5054845;28;20228;-71
2021/10/04 03:40:21;;;;;;;3.97;2.10;;;;;;;;;;5055275;28;20217;-71
2021/10/04 03:42:48;;;;;;;3.43;2.27;;;;;;;;;;5055934;28;20267;-72
2021/10/04 03:45:15;;;;;;;4.63;2.13;;;;;;;;;;5056030;28;20666;-71
2021/10/04 03:47:43;;;;;;;2.87;2.00;;;;;;;;;;5055265;28;20214;-71
2021/10/04 03:50:11;;;;;;;6.57;2.50;;;;;;;;;;5055394;28;20249;-71
2021/10/04 03:52:38;;;;;;;5.80;2.37;;;;;;;;;;5055401;28;20598;-70
2021/10/04 03:55:08;;;;;;;8.43;2.20;;;;;;;;;;5053746;28;20213;-72
2021/10/04 03:57:37;;;;;;;5.23;2.10;;;;;;;;;;5056170;28;20209;-72
2021/10/04 04:00:06;;;;;;;6.50;2.60;;;;;;;;;;5055767;28;20649;-70
2021/10/04 04:02:32;;;;;;;4.40;2.17;;;;;;;;;;5052557;28;20205;-70
2021/10/04 04:04:58;;;;;;;9.37;2.50;;;;;;;;;;5055680;28;20237;-70
2021/10/04 04:07:25;;;;;;;5.07;2.50;;;;;;;;;;5054074;28;20266;-70
2021/10/04 04:09:51;;;;;;;7.77;3.03;;;;;;;;;;5052437;28;20264;-71
2021/10/04 04:12:19;;;;;;;5.40;2.77;;;;;;;;;;5054809;28;20249;-71
2021/10/04 04:14:45;;;;;;;3.83;2.30;;;;;;;;;;5054514;28;20221;-71
2021/10/04 04:17:12;;;;;;;5.83;2.70;;;;;;;;;;5054731;28;20220;-71
2021/10/04 04:19:38;;;;;;;4.60;2.33;;;;;;;;;;5054336;28;20298;-71
2021/10/04 04:22:04;;;;;;;4.80;2.30;;;;;;;;;;5054649;28;20246;-71
2021/10/04 04:24:31;;;;;;;6.00;2.60;;;;;;;;;;5054869;28;20218;-71
2021/10/04 04:26:57;;;;;;;7.10;3.07;;;;;;;;;;5055078;28;21158;-71
2021/10/04 04:29:26;;;;;;;4.70;2.30;;;;;;;;;;5056615;28;20287;-71
2021/10/04 04:31:52;;;;;;;5.28;3.28;;;;;;;;;;5051314;28;20449;-72
2021/10/04 04:34:19;;;;;;;7.60;2.70;;;;;;;;;;5054813;28;20214;-72
2021/10/04 04:36:45;;;;;;;5.87;2.60;;;;;;;;;;5054880;28;20714;-72
2021/10/04 04:39:12;;;;;;;5.80;2.60;;;;;;;;;;5054383;28;20258;-72
2021/10/04 04:41:38;;;;;;;3.33;2.17;;;;;;;;;;5053916;28;20632;-72
2021/10/04 04:44:05;;;;;;;3.70;2.47;;;;;;;;;;5054758;28;20212;-72
2021/10/04 04:46:33;;;;;;;7.30;2.77;;;;;;;;;;5053869;28;20225;-72
2021/10/04 04:48:59;;;;;;;6.40;2.40;;;;;;;;;;5054173;28;20310;-72
2021/10/04 04:51:25;;;;;;;4.93;2.90;;;;;;;;;;5054822;28;20238;-72
2021/10/04 04:53:52;;;;;;;5.40;2.90;;;;;;;;;;5053723;28;20217;-72
2021/10/04 04:56:18;;;;;;;7.03;2.80;;;;;;;;;;5055128;28;20224;-72
2021/10/04 04:58:45;;;;;;;4.60;2.87;;;;;;;;;;5052207;28;20248;-72
2021/10/04 05:01:11;;;;;;;5.20;2.60;;;;;;;;;;5053824;28;20736;-72
2021/10/04 05:03:39;;;;;;;6.37;2.70;;;;;;;;;;5054509;28;20267;-72
2021/10/04 05:06:05;;;;;;;8.37;2.87;;;;;;;;;;5054341;28;20236;-72
2021/10/04 05:08:32;;;;;;;4.53;2.77;;;;;;;;;;5056127;28;20214;-72
2021/10/04 05:10:58;;;;;;;3.03;2.57;;;;;;;;;;5052367;28;20236;-72
2021/10/04 05:13:25;;;;;;;4.50;2.30;;;;;;;;;;5053752;28;20572;-74
2021/10/04 05:15:51;;;;;;;5.13;2.80;;;;;;;;;;5054805;28;20242;-72
2021/10/04 05:18:18;;;;;;;5.17;2.33;;;;;;;;;;5053830;28;20222;-72
2021/10/04 05:20:46;;;;;;;5.67;2.50;;;;;;;;;;5054794;28;20306;-72
2021/10/04 05:23:12;;;;;;;5.83;2.13;;;;;;;;;;5057928;28;20596;-72
2021/10/04 05:25:39;;;;;;;9.43;2.67;;;;;;;;;;5058544;28;20210;-72
2021/10/04 05:28:06;;;;;;;5.03;2.53;;;;;;;;;;5059959;28;20212;-72
2021/10/04 05:30:33;;;;;;;5.13;2.57;;;;;;;;;;5057623;28;20295;-72
2021/10/04 05:33:02;;;;;;;5.83;2.73;;;;;;;;;;5057496;28;20721;-74
2021/10/04 05:35:28;;;;;;;5.33;2.63;;;;;;;;;;5058963;28;20227;-74
2021/10/04 05:37:56;;;;;;;4.90;2.43;;;;;;;;;;5056176;28;20212;-74
2021/10/04 05:40:23;;;;;;;6.50;2.43;;;;;;;;;;5056254;28;20231;-74
2021/10/04 05:42:49;;;;;;;5.30;2.70;;;;;;;;;;5057156;28;20605;-73
2021/10/04 05:45:16;;;;;;;6.13;2.60;;;;;;;;;;5058679;28;20565;-74
2021/10/04 05:47:44;;;;;;;3.67;2.47;;;;;;;;;;5056705;28;20667;-74
2021/10/04 05:50:11;;;;;;;5.53;2.80;;;;;;;;;;5056546;28;20230;-74
2021/10/04 05:52:38;;;;;;;6.77;2.20;;;;;;;;;;5057265;28;20207;-74
2021/10/04 05:55:08;;;;;;;4.20;2.40;;;;;;;;;;5056676;28;20221;-74
2021/10/04 05:57:35;;;;;;;4.93;2.70;;;;;;;;;;5058768;28;20225;-74
2021/10/04 06:00:01;;;;;;;4.17;2.60;;;;;;;;;;5058054;28;20225;-74
2021/10/04 06:02:28;;;;;;;6.53;2.80;;;;;;;;;;5058338;28;20270;-74
2021/10/04 06:04:54;;;;;;;4.23;2.60;;;;;;;;;;5057275;28;20246;-74
2021/10/04 06:07:21;;;;;;;7.07;2.90;;;;;;;;;;5055128;28;20418;-74
2021/10/04 06:09:47;;;;;;;6.93;2.50;;;;;;;;;;5056325;28;20279;-74
2021/10/04 06:12:15;;;;;;;5.73;2.33;;;;;;;;;;5053994;28;20287;-74
2021/10/04 06:14:41;;;;;;;4.50;2.50;;;;;;;;;;5055470;28;20227;-74
2021/10/04 06:17:08;;;;;;;7.40;2.97;;;;;;;;;;5054823;28;20217;-74
2021/10/04 06:19:34;;;;;;;8.20;2.60;;;;;;;;;;5053653;28;20216;-74
2021/10/04 06:22:01;;;;;;;5.13;2.37;;;;;;;;;;5053926;28;20548;-74
2021/10/04 06:24:27;;;;;;;5.00;2.57;;;;;;;;;;5053788;28;20212;-74
2021/10/04 06:26:54;;;;;;;7.33;2.90;;;;;;;;;;5053545;28;20213;-74
2021/10/04 06:29:22;;;;;;;4.17;2.40;;;;;;;;;;5055180;28;20225;-74
2021/10/04 06:31:48;;;;;;;8.10;3.23;;;;;;;;;;5055963;28;20233;-74
2021/10/04 06:34:14;;;;;;;6.47;2.70;;;;;;;;;;5053278;28;20267;-74
2021/10/04 06:36:41;;;;;;;5.63;2.67;;;;;;;;;;5055400;28;20241;-74
2021/10/04 06:39:07;;;;;;;3.90;2.90;;;;;;;;;;5054612;28;20212;-74
2021/10/04 06:41:34;;;;;;;8.23;2.90;;;;;;;;;;5056324;28;20295;-74
2021/10/04 06:44:00;;;;;;;7.60;2.53;;;;;;;;;;5054812;28;20211;-74
2021/10/04 06:46:28;;;;;;;4.27;2.50;;;;;;;;;;5054257;28;20239;-74
2021/10/04 06:48:54;;;;;;;7.13;3.03;;;;;;;;;;5054220;28;20271;-74
2021/10/04 06:51:20;;;;;;;6.43;2.80;;;;;;;;;;5051064;28;20252;-74
2021/10/04 06:53:47;;;;;;;5.30;2.70;;;;;;;;;;5055590;28;20625;-74
2021/10/04 06:56:13;;;;;;;4.57;2.97;;;;;;;;;;5053901;28;20217;-74
2021/10/04 06:58:39;;;;;;;6.40;2.20;;;;;;;;;;5054836;28;20221;-74
2021/10/04 07:01:06;;;;;;;6.97;2.93;;;;;;;;;;5053401;28;20232;-74
2021/10/04 07:03:34;;;;;;;7.07;2.70;;;;;;;;;;5053771;28;20230;-74
2021/10/04 07:06:00;;;;;;;5.20;3.10;;;;;;;;;;5051167;28;20329;-72
2021/10/04 07:08:27;;;;;;;5.43;2.77;;;;;;;;;;5053591;28;20210;-71
2021/10/04 07:10:54;;;;;;;6.30;3.00;;;;;;;;;;5055226;28;20703;-74
2021/10/04 07:13:20;;;;;;;4.97;2.47;;;;;;;;;;5051957;28;20210;-74
2021/10/04 07:15:46;;;;;;;4.17;2.87;;;;;;;;;;5051980;28;20221;-74
2021/10/04 07:18:13;;;;;;;4.07;2.27;;;;;;;;;;5054241;28;20212;-74
2021/10/04 07:20:41;;;;;;;7.00;3.10;;;;;;;;;;5052108;28;20245;-74
2021/10/04 07:23:08;;;;;;;5.17;2.70;;;;;;;;;;5052639;28;20212;-74
2021/10/04 07:25:35;;;;;;;6.60;2.43;;;;;;;;;;5054401;28;20214;-74
2021/10/04 07:28:01;;;;;;;6.17;2.80;;;;;;;;;;5053951;28;20362;-74
2021/10/04 07:30:28;;;;;;;5.37;2.67;;;;;;;;;;5053220;28;20217;-74
2021/10/04 07:32:56;;;;;;;5.33;2.93;;;;;;;;;;5053740;28;20237;-74
2021/10/04 07:35:23;;;;;;;6.30;2.63;;;;;;;;;;5053736;28;20319;-74
2021/10/04 07:37:51;;;;;;;4.37;2.50;;;;;;;;;;5051417;28;20722;-74
2021/10/04 07:40:18;;;;;;;4.67;2.47;;;;;;;;;;5054607;28;20210;-74
2021/10/04 07:42:45;;;;;;;6.77;2.57;;;;;;;;;;5053654;28;20755;-74
2021/10/04 07:45:12;;;;;;;7.40;2.53;;;;;;;;;;5051165;28;20216;-74
2021/10/04 07:47:39;;;;;;;5.43;2.23;;;;;;;;;;5051995;28;20208;-74
2021/10/04 07:50:08;;;;;;;3.50;2.30;;;;;;;;;;5052118;28;20711;-74
2021/10/04 07:52:34;;;;;;;5.63;2.50;;;;;;;;;;5052694;28;20241;-74
2021/10/04 07:55:02;;;;;;;4.70;2.43;;;;;;;;;;5052011;28;20220;-74
2021/10/04 07:57:28;;;;;;;4.70;2.73;;;;;;;;;;5051660;28;20270;-74
2021/10/04 07:59:55;;;;;;;5.00;2.70;;;;;;;;;;5052323;28;20620;-74
2021/10/04 08:02:21;;;;;;;6.87;2.17;;;;;;;;;;5051844;28;20210;-74
2021/10/04 08:04:48;;;;;;;5.93;2.73;;;;;;;;;;5054142;28;20287;-74
2021/10/04 08:07:14;;;;;;;5.60;2.70;;;;;;;;;;5054049;28;20213;-73
2021/10/04 08:09:40;;;;;;;6.97;3.00;;;;;;;;;;5052769;28;20221;-73
2021/10/04 08:12:08;;;;;;;5.80;2.30;;;;;;;;;;5051519;28;20253;-73
2021/10/04 08:14:36;;;;;;;4.83;2.40;;;;;;;;;;5052366;28;20770;-73
2021/10/04 08:17:04;;;;;;;6.27;2.17;;;;;;;;;;5054328;28;20258;-73
2021/10/04 08:19:31;;;;;;;4.00;2.40;;;;;;;;;;5053116;28;20715;-73
2021/10/04 08:21:57;;;;;;;3.63;1.93;;;;;;;;;;5053703;28;20209;-73
2021/10/04 08:24:24;;;;;;;5.13;2.07;;;;;;;;;;5053118;28;20213;-74
2021/10/04 08:26:50;;;;;;;6.37;2.20;;;;;;;;;;5051371;28;20529;-74
2021/10/04 08:29:18;;;;;;;3.20;1.93;;;;;;;;;;5053587;28;20487;-73
2021/10/04 08:31:45;;;;;;;5.10;2.33;;;;;;;;;;5052606;28;20225;-72
2021/10/04 08:34:11;;;;;;;4.33;2.30;;;;;;;;;;5050770;28;20210;-73
2021/10/04 08:36:38;;;;;;;4.80;2.20;;;;;;;;;;5052891;28;20291;-72
2021/10/04 08:39:06;;;;;;;3.20;2.20;;;;;;;;;;5050207;28;20213;-71
2021/10/04 08:41:34;;;;;;;4.63;2.07;;;;;;;;;;5051212;28;20206;-72
2021/10/04 08:44:04;;;;;;;5.70;2.07;;;;;;;;;;5052825;28;20210;-72
2021/10/04 08:46:33;;;;;;;4.37;2.90;;;;;;;;;;5051242;28;20263;-72
2021/10/04 08:48:59;;;;;;;5.23;2.33;;;;;;;;;;5053061;28;21190;-72
2021/10/04 08:51:26;;;;;;;2.83;1.63;;;;;;;;;;5052180;28;20275;-73
2021/10/04 08:53:52;;;;;;;5.03;2.00;;;;;;;;;;5053462;28;20259;-73
2021/10/04 08:56:18;;;;;;;7.73;2.50;;;;;;;;;;5052983;28;20206;-73
2021/10/04 08:58:45;;;;;;;3.40;2.20;;;;;;;;;;5056912;28;20268;-73
2021/10/04 09:01:11;;;;;;;5.10;2.13;;;;;;;;;;5057354;28;20281;-73
2021/10/04 09:03:47;;;;;;;4.33;2.23;;;;;;;;;;5055440;28;20594;-73
2021/10/04 09:06:25;;;;;;;7.40;2.20;;;;;;;;;;5054332;28;20307;-72
2021/10/04 09:08:52;;;;;;;5.17;1.87;;;;;;;;;;5057295;28;20206;-73
2021/10/04 09:11:29;;;;;;;6.70;1.63;;;;;;;;;;5054581;28;20246;-73
2021/10/04 09:14:00;;;;;;;7.13;1.60;;;;;;;;;;5057273;28;20206;-72
2021/10/04 09:16:26;;;;;;;6.67;1.90;;;;;;;;;;5056266;28;20213;-74
2021/10/04 09:19:18;;;;;;;4.20;2.00;;;;;;;;;;5056983;28;20234;-73
2021/10/04 09:22:02;;;;;;;5.00;1.87;;;;;;;;;;5056506;28;20681;-73
2021/10/04 09:24:28;;;;;;;6.30;2.10;;;;;;;;;;5056577;28;20207;-70
2021/10/04 09:26:55;;;;;;;6.90;1.90;;;;;;;;;;5056303;28;20213;-71
2021/10/04 09:29:24;;;;;;;5.87;1.60;;;;;;;;;;5055744;28;20216;-71
2021/10/04 09:31:51;;;;;;;5.13;1.80;;;;;;;;;;5056807;28;20340;-71
2021/10/04 09:34:20;;;;;;;5.33;1.90;;;;;;;;;;5057282;28;20227;-73
2021/10/04 09:36:49;;;;;;;7.27;2.10;;;;;;;;;;5058045;28;20706;-73
2021/10/04 09:39:20;;;;;;;5.10;1.90;;;;;;;;;;5055357;28;20216;-73
2021/10/04 09:42:08;;;;;;;7.73;1.93;;;;;;;;;;5053078;28;20312;-73
2021/10/04 09:44:50;;;;;;;8.83;2.27;;;;;;;;;;5056657;28;20206;-73
2021/10/04 09:47:18;;;;;;;5.60;1.50;;;;;;;;;;5056846;28;20201;-73
2021/10/04 09:49:58;;;;;;;7.20;1.70;;;;;;;;;;5058866;28;20282;-73
2021/10/04 09:52:37;;;;;;;5.07;1.70;;;;;;;;;;5055249;28;20206;-73
2021/10/04 09:55:18;;;;;;;11.20;1.63;;;;;;;;;;5055433;28;20908;-73
2021/10/04 09:57:54;;;;;;;5.13;1.53;;;;;;;;;;5055717;28;20212;-73
2021/10/04 10:00:20;;;;;;;3.97;1.17;;;;;;;;;;5054819;28;20210;-73
2021/10/04 10:02:53;;;;;;;4.50;1.60;;;;;;;;;;5055257;28;20281;-73
2021/10/04 10:05:22;;;;;;;9.13;1.80;;;;;;;;;;5056087;28;20320;-73
2021/10/04 10:07:49;;;;;;;5.67;1.57;;;;;;;;;;5056507;28;20210;-73
2021/10/04 10:10:16;;;;;;;5.57;1.60;;;;;;;;;;5055654;28;20215;-72
2021/10/04 10:12:42;;;;;;;3.83;1.00;;;;;;;;;;5054859;28;20249;-73
2021/10/04 10:15:09;;;;;;;5.00;1.30;;;;;;;;;;5055388;28;20219;-72
2021/10/04 10:17:36;;;;;;;9.80;1.57;;;;;;;;;;5056016;28;20277;-72
2021/10/04 10:20:03;;;;;;;4.83;1.30;;;;;;;;;;5056648;28;20367;-72
2021/10/04 10:22:33;;;;;;;2.53;1.33;;;;;;;;;;5054554;28;20219;-72
2021/10/04 10:25:01;;;;;;;12.40;1.40;;;;;;;;;;5057037;28;20216;-72
2021/10/04 10:27:39;;;;;;;6.70;1.57;;;;;;;;;;5055967;28;20217;-72
2021/10/04 10:30:17;;;;;;;9.67;1.60;;;;;;;;;;5053555;28;20216;-73
2021/10/04 10:32:44;;;;;;;3.70;1.23;;;;;;;;;;5055950;28;20237;-73
2021/10/04 10:35:10;;;;;;;4.23;1.57;;;;;;;;;;5055490;28;20232;-73
2021/10/04 10:37:50;;;;;;;6.97;1.73;;;;;;;;;;5055211;28;20298;-72
2021/10/04 10:40:19;;;;;;;7.20;1.27;;;;;;;;;;5052735;28;20276;-72
2021/10/04 10:43:00;;;;;;;4.07;1.60;;;;;;;;;;5056831;28;20917;-72
2021/10/04 10:45:39;;;;;;;6.33;1.40;;;;;;;;;;5054324;28;20566;-72
2021/10/04 10:48:06;;;;;;;4.40;1.30;;;;;;;;;;5052359;28;20212;-72
2021/10/04 10:50:40;;;;;;;4.63;0.90;;;;;;;;;;5053880;28;20241;-72
2021/10/04 10:53:26;;;;;;;4.50;1.20;;;;;;;;;;5052858;28;20253;-72
2021/10/04 10:55:55;;;;;;;5.23;1.37;;;;;;;;;;5049129;28;21179;-72
2021/10/04 10:58:24;;;;;;;8.93;1.27;;;;;;;;;;5055379;28;20216;-73
2021/10/04 11:01:13;;;;;;;11.40;2.13;;;;;;;;;;5055178;28;20279;-73
2021/10/04 11:03:46;;;;;;;12.77;1.20;;;;;;;;;;5055890;28;20626;-73
2021/10/04 11:06:12;;;;;;;4.97;0.80;;;;;;;;;;5053829;28;20715;-73
2021/10/04 11:09:00;;;;;;;9.53;1.93;;;;;;;;;;5054546;28;20220;-72
2021/10/04 11:11:30;;;;;;;9.00;1.47;;;;;;;;;;5055947;28;20252;-74
2021/10/04 11:14:16;;;;;;;6.37;1.43;;;;;;;;;;5054355;28;20233;-73
2021/10/04 11:16:48;;;;;;;6.43;0.83;;;;;;;;;;5053534;28;20362;-73
2021/10/04 11:19:23;;;;;;;5.93;1.17;;;;;;;;;;5055113;28;20683;-73
2021/10/04 11:21:51;;;;;;;6.70;1.17;;;;;;;;;;5053845;28;20324;-73
2021/10/04 11:24:20;;;;;;;4.43;1.03;;;;;;;;;;5055106;28;20210;-72
2021/10/04 11:26:47;;;;;;;2.83;0.83;;;;;;;;;;5054489;28;20219;-73
2021/10/04 11:29:18;;;;;;;6.03;1.30;;;;;;;;;;5054414;28;20209;-72
2021/10/04 11:31:45;;;;;;;7.47;1.17;;;;;;;;;;5052182;28;20222;-72
2021/10/04 11:34:14;;;;;;;9.20;1.13;;;;;;;;;;5053495;28;20229;-73
2021/10/04 11:36:43;;;;;;;6.37;1.17;;;;;;;;;;5053950;28;20286;-74
2021/10/04 11:39:12;;;;;;;4.77;1.20;;;;;;;;;;5053451;28;20213;-72
2021/10/04 11:41:42;;;;;;;6.80;1.40;;;;;;;;;;5054072;28;20215;-72
2021/10/04 11:44:11;;;;;;;6.83;1.20;;;;;;;;;;5052474;28;20246;-72
2021/10/04 11:46:40;;;;;;;5.80;1.30;;;;;;;;;;5054004;28;20527;-73
2021/10/04 11:49:08;;;;;;;4.27;1.13;;;;;;;;;;5053141;28;20215;-73
2021/10/04 11:51:44;;;;;;;6.17;1.70;;;;;;;;;;5052457;28;20284;-72
2021/10/04 11:54:11;;;;;;;7.23;1.23;;;;;;;;;;5053026;28;20228;-73
2021/10/04 11:56:41;;;;;;;10.07;1.70;;;;;;;;;;5053825;28;20217;-72
2021/10/04 11:59:08;;;;;;;9.53;1.63;;;;;;;;;;5052904;28;20212;-70
2021/10/04 12:01:36;;;;;;;5.13;1.43;;;;;;;;;;5054929;28;20294;-71
2021/10/04 12:04:05;;;;;;;11.50;1.67;;;;;;;;;;5053517;28;20262;-72
2021/10/04 12:06:34;;;;;;;5.33;1.47;;;;;;;;;;5053411;28;20695;-72
2021/10/04 12:09:00;;;;;;;9.03;1.57;;;;;;;;;;5054344;28;20227;-72
2021/10/04 12:11:28;;;;;;;8.63;1.53;;;;;;;;;;5053385;28;20834;-71
2021/10/04 12:13:56;;;;;;;8.00;1.60;;;;;;;;;;5054626;28;20236;-72
2021/10/04 12:16:28;;;;;;;4.93;1.63;;;;;;;;;;5051247;28;20306;-71
2021/10/04 12:18:57;;;;;;;4.73;1.50;;;;;;;;;;5054369;28;20221;-72
2021/10/04 12:21:26;;;;;;;5.70;1.80;;;;;;;;;;5053088;28;20932;-72
2021/10/04 12:24:09;;;;;;;7.87;1.63;;;;;;;;;;5050014;28;20208;-71
2021/10/04 12:26:49;;;;;;;9.33;1.30;;;;;;;;;;5053730;28;20216;-72
2021/10/04 12:29:35;;;;;;;5.50;1.40;;;;;;;;;;5052678;28;20707;-71
2021/10/04 12:32:25;;;;;;;7.80;1.93;;;;;;;;;;5052397;28;20258;-72
2021/10/04 12:35:10;;;;;;;4.50;1.17;;;;;;;;;;5052814;28;20236;-73
2021/10/04 12:37:38;;;;;;;13.27;2.00;;;;;;;;;;5052635;28;20255;-72
2021/10/04 12:40:24;;;;;;;8.23;1.20;;;;;;;;;;5051417;28;20889;-72
2021/10/04 12:42:52;;;;;;;5.03;1.33;;;;;;;;;;5052734;28;20233;-72
2021/10/04 12:45:20;;;;;;;6.13;1.60;;;;;;;;;;5051403;28;20230;-71
2021/10/04 12:48:01;;;;;;;9.07;1.37;;;;;;;;;;5052084;28;20205;-72
2021/10/04 12:50:30;;;;;;;12.27;2.00;;;;;;;;;;5053578;28;20438;-72
2021/10/04 12:53:20;;;;;;;6.50;1.30;;;;;;;;;;5054106;28;20232;-71
2021/10/04 12:55:54;;;;;;;8.43;1.80;;;;;;;;;;5052078;28;20652;-72
2021/10/04 12:58:22;;;;;;;5.30;1.27;;;;;;;;;;5052556;28;20216;-72
2021/10/04 13:00:50;;;;;;;5.97;1.40;;;;;;;;;;5051954;28;20652;-71
2021/10/04 13:03:17;;;;;;;9.57;1.23;;;;;;;;;;5053324;28;20225;-71
2021/10/04 13:05:43;;;;;;;4.47;1.50;;;;;;;;;;5051985;28;20233;-71
2021/10/04 13:08:10;;;;;;;6.83;1.33;;;;;;;;;;5051991;28;20223;-72
2021/10/04 13:10:36;;;;;;;6.53;1.70;;;;;;;;;;5052784;28;20217;-72
2021/10/04 13:13:03;;;;;;;6.80;1.33;;;;;;;;;;5051549;28;20305;-72
2021/10/04 13:15:31;;;;;;;8.07;1.63;;;;;;;;;;5052273;28;21034;-72
2021/10/04 13:17:59;;;;;;;9.13;2.10;;;;;;;;;;5052554;28;20554;-72
2021/10/04 13:20:26;;;;;;;9.33;1.50;;;;;;;;;;5051679;28;20237;-72
2021/10/04 13:22:52;;;;;;;4.40;1.43;;;;;;;;;;5051384;28;20205;-72
2021/10/04 13:25:19;;;;;;;9.20;1.70;;;;;;;;;;5049879;28;20209;-71
2021/10/04 13:27:46;;;;;;;4.57;1.07;;;;;;;;;;5050494;28;20300;-72
2021/10/04 13:30:13;;;;;;;4.87;1.27;;;;;;;;;;5051426;28;20246;-72
2021/10/04 13:32:39;;;;;;;9.23;1.17;;;;;;;;;;5050656;28;20226;-72
2021/10/04 13:35:08;;;;;;;6.37;1.87;;;;;;;;;;5052874;28;20796;-72
2021/10/04 13:37:35;;;;;;;5.13;1.73;;;;;;;;;;5050520;28;20249;-72
2021/10/04 13:40:01;;;;;;;4.47;1.20;;;;;;;;;;5052188;28;20217;-72
2021/10/04 13:42:32;;;;;;;6.00;0.90;;;;;;;;;;5053646;28;20308;-71
2021/10/04 13:44:59;;;;;;;7.73;1.57;;;;;;;;;;5054284;28;20586;-72
2021/10/04 13:47:25;;;;;;;4.87;1.20;;;;;;;;;;5055234;28;20276;-73
2021/10/04 13:49:51;;;;;;;3.80;1.17;;;;;;;;;;5056976;28;21307;-72
2021/10/04 13:52:19;;;;;;;9.57;1.50;;;;;;;;;;5055352;28;20239;-72
2021/10/04 13:54:46;;;;;;;4.33;1.30;;;;;;;;;;5057501;28;20230;-72
2021/10/04 13:57:12;;;;;;;4.27;1.10;;;;;;;;;;5056931;28;20551;-73
2021/10/04 13:59:38;;;;;;;6.87;1.57;;;;;;;;;;5055395;28;20263;-72
2021/10/04 14:02:05;;;;;;;3.57;1.00;;;;;;;;;;5056072;28;20218;-73
2021/10/04 14:04:31;;;;;;;4.27;1.10;;;;;;;;;;5054430;28;20207;-73
2021/10/04 14:06:58;;;;;;;6.63;1.50;;;;;;;;;;5054756;28;20205;-73
2021/10/04 14:09:27;;;;;;;3.53;0.90;;;;;;;;;;5055693;28;20286;-73
2021/10/04 14:11:53;;;;;;;7.57;1.63;;;;;;;;;;5054536;28;20252;-72
2021/10/04 14:14:20;;;;;;;6.50;1.30;;;;;;;;;;5055767;28;20247;-72
2021/10/04 14:16:46;;;;;;;5.50;1.20;;;;;;;;;;5055929;28;21087;-72
2021/10/04 14:19:13;;;;;;;9.00;1.23;;;;;;;;;;5054062;28;20272;-72
2021/10/04 14:21:40;;;;;;;7.07;1.80;;;;;;;;;;5053512;28;20753;-72
2021/10/04 14:24:06;;;;;;;5.23;1.00;;;;;;;;;;5055079;28;20203;-72
2021/10/04 14:26:34;;;;;;;6.90;1.20;;;;;;;;;;5055199;28;20216;-72
2021/10/04 14:29:01;;;;;;;7.03;1.47;;;;;;;;;;5054863;28;20253;-72
2021/10/04 14:31:28;;;;;;;4.60;1.27;;;;;;;;;;5054660;28;20266;-72
2021/10/04 14:33:55;;;;;;;8.83;1.47;;;;;;;;;;5054389;28;20772;-72
2021/10/04 14:36:21;;;;;;;4.97;1.60;;;;;;;;;;5053562;28;20271;-72
2021/10/04 14:38:51;;;;;;;5.70;1.60;;;;;;;;;;5055655;28;20215;-72
2021/10/04 14:41:19;;;;;;;6.13;1.27;;;;;;;;;;5055177;28;20223;-72
2021/10/04 14:43:47;;;;;;;7.03;1.50;;;;;;;;;;5052995;28;20272;-72
2021/10/04 14:46:13;;;;;;;6.13;1.30;;;;;;;;;;5054006;28;20230;-72
2021/10/04 14:48:40;;;;;;;5.60;1.17;;;;;;;;;;5055893;28;20287;-72